Romney, Indiana
Current Conditions -  °F | °C
As of 6:54 PM on Thursday 27 Nov 2014 (Local Time) from KLAF Reporting Station
Overcast Overcast  
Wind Chill: 17°   Ceiling: 4500
Heat Index: 24°   Visibility: 10mi
Dew Point: 21°   Wind: 6mph
Humidity: 88%   Direction: 300°WNW
Pressure: 30.4"   Gusts: NA
Location:  40.25°N, 86.9°W
Report Text: KLAF 272354Z AUTO 30005KT 10SM OVC045 M04/M06 A3040 RMK AO2 SNE28 SLP302 P0000 60000 T10441061 11028 21044 51014 TSNO
Loading
Personal Weather Stations






























Interactive Weather Map New forecast layout! Learn more

10-Day Weather Forecast

Advertisements
Track Severe Weather on mobile